sensor_id;sensor_type;location;lat;lon;timestamp;temperature;humidity
2913;DHT22;1466;48.778;9.166;2023-11-19T00:01:40;10.30;99.90
2913;DHT22;1466;48.778;9.166;2023-11-19T00:04:05;10.40;99.90
2913;DHT22;1466;48.778;9.166;2023-11-19T00:06:31;10.40;99.90
2913;DHT22;1466;48.778;9.166;2023-11-19T00:08:56;10.40;99.90
2913;DHT22;1466;48.778;9.166;2023-11-19T00:11:22;10.40;99.90
2913;DHT22;1466;48.778;9.166;2023-11-19T00:13:47;10.40;99.90
2913;DHT22;1466;48.778;9.166;2023-11-19T00:16:13;10.40;99.90
2913;DHT22;1466;48.778;9.166;2023-11-19T00:18:39;10.40;99.90
2913;DHT22;1466;48.778;9.166;2023-11-19T00:21:05;10.40;99.90
2913;DHT22;1466;48.778;9.166;2023-11-19T00:23:33;10.50;99.90
2913;DHT22;1466;48.778;9.166;2023-11-19T00:25:58;10.50;99.90
2913;DHT22;1466;48.778;9.166;2023-11-19T00:28:24;10.60;99.90
2913;DHT22;1466;48.778;9.166;2023-11-19T00:30:50;10.60;99.90
2913;DHT22;1466;48.778;9.166;2023-11-19T00:33:15;10.70;99.90
2913;DHT22;1466;48.778;9.166;2023-11-19T00:35:41;10.70;99.90
2913;DHT22;1466;48.778;9.166;2023-11-19T00:38:06;10.70;99.90
2913;DHT22;1466;48.778;9.166;2023-11-19T00:40:32;10.70;99.90
2913;DHT22;1466;48.778;9.166;2023-11-19T00:42:58;10.70;99.90
2913;DHT22;1466;48.778;9.166;2023-11-19T00:45:23;10.80;99.90
2913;DHT22;1466;48.778;9.166;2023-11-19T00:47:49;10.80;99.90
2913;DHT22;1466;48.778;9.166;2023-11-19T00:50:15;10.80;99.90
2913;DHT22;1466;48.778;9.166;2023-11-19T00:52:41;10.90;99.90
2913;DHT22;1466;48.778;9.166;2023-11-19T00:55:07;10.90;99.90
2913;DHT22;1466;48.778;9.166;2023-11-19T00:57:32;11.00;99.90
2913;DHT22;1466;48.778;9.166;2023-11-19T00:59:59;11.00;99.90
2913;DHT22;1466;48.778;9.166;2023-11-19T01:02:25;11.00;99.90
2913;DHT22;1466;48.778;9.166;2023-11-19T01:04:50;11.10;99.90
2913;DHT22;1466;48.778;9.166;2023-11-19T01:07:16;11.10;99.90
2913;DHT22;1466;48.778;9.166;2023-11-19T01:09:42;11.10;99.90
2913;DHT22;1466;48.778;9.166;2023-11-19T01:12:08;11.10;99.90
2913;DHT22;1466;48.778;9.166;2023-11-19T01:14:34;11.20;99.90
2913;DHT22;1466;48.778;9.166;2023-11-19T01:17:01;11.30;99.90
2913;DHT22;1466;48.778;9.166;2023-11-19T01:19:27;11.30;99.90
2913;DHT22;1466;48.778;9.166;2023-11-19T01:21:54;11.30;99.90
2913;DHT22;1466;48.778;9.166;2023-11-19T01:24:20;11.30;99.90
2913;DHT22;1466;48.778;9.166;2023-11-19T01:26:46;11.30;99.90
2913;DHT22;1466;48.778;9.166;2023-11-19T01:29:12;11.40;99.90
2913;DHT22;1466;48.778;9.166;2023-11-19T01:31:42;11.40;99.90
2913;DHT22;1466;48.778;9.166;2023-11-19T01:34:08;11.40;99.90
2913;DHT22;1466;48.778;9.166;2023-11-19T01:36:33;11.50;99.90
2913;DHT22;1466;48.778;9.166;2023-11-19T01:38:59;11.50;99.90
2913;DHT22;1466;48.778;9.166;2023-11-19T01:41:25;11.50;99.90
2913;DHT22;1466;48.778;9.166;2023-11-19T01:43:50;11.60;99.90
2913;DHT22;1466;48.778;9.166;2023-11-19T01:46:16;11.60;99.90
2913;DHT22;1466;48.778;9.166;2023-11-19T01:48:45;11.60;99.90
2913;DHT22;1466;48.778;9.166;2023-11-19T01:51:12;11.70;99.90
2913;DHT22;1466;48.778;9.166;2023-11-19T01:53:39;11.70;99.90
2913;DHT22;1466;48.778;9.166;2023-11-19T01:56:07;11.70;99.90
2913;DHT22;1466;48.778;9.166;2023-11-19T01:58:37;11.80;99.90
2913;DHT22;1466;48.778;9.166;2023-11-19T02:01:05;11.80;99.90
2913;DHT22;1466;48.778;9.166;2023-11-19T02:03:34;11.80;99.90
2913;DHT22;1466;48.778;9.166;2023-11-19T02:06:00;11.80;99.90
2913;DHT22;1466;48.778;9.166;2023-11-19T02:08:26;11.80;99.90
2913;DHT22;1466;48.778;9.166;2023-11-19T02:10:52;11.80;99.90
2913;DHT22;1466;48.778;9.166;2023-11-19T02:13:18;11.80;99.90
2913;DHT22;1466;48.778;9.166;2023-11-19T02:15:44;11.80;99.90
2913;DHT22;1466;48.778;9.166;2023-11-19T02:18:24;11.90;99.90
2913;DHT22;1466;48.778;9.166;2023-11-19T02:20:53;11.90;99.90
2913;DHT22;1466;48.778;9.166;2023-11-19T02:23:20;11.90;99.90
2913;DHT22;1466;48.778;9.166;2023-11-19T02:26:12;11.90;99.90
2913;DHT22;1466;48.778;9.166;2023-11-19T02:28:34;11.90;99.90
2913;DHT22;1466;48.778;9.166;2023-11-19T02:31:01;11.90;99.90
2913;DHT22;1466;48.778;9.166;2023-11-19T02:33:26;11.90;99.90
2913;DHT22;1466;48.778;9.166;2023-11-19T02:35:52;12.00;99.90
2913;DHT22;1466;48.778;9.166;2023-11-19T02:38:17;12.00;99.90
2913;DHT22;1466;48.778;9.166;2023-11-19T02:40:43;11.90;99.90
2913;DHT22;1466;48.778;9.166;2023-11-19T02:43:08;12.00;99.90
2913;DHT22;1466;48.778;9.166;2023-11-19T02:45:34;12.00;99.90
2913;DHT22;1466;48.778;9.166;2023-11-19T02:48:01;11.90;99.90
2913;DHT22;1466;48.778;9.166;2023-11-19T02:50:27;12.00;99.90
2913;DHT22;1466;48.778;9.166;2023-11-19T02:52:55;12.00;99.90
2913;DHT22;1466;48.778;9.166;2023-11-19T02:55:24;12.00;99.90
2913;DHT22;1466;48.778;9.166;2023-11-19T02:57:50;12.00;99.90
2913;DHT22;1466;48.778;9.166;2023-11-19T03:00:21;12.00;99.90
2913;DHT22;1466;48.778;9.166;2023-11-19T03:02:51;11.90;99.90
2913;DHT22;1466;48.778;9.166;2023-11-19T03:05:35;11.90;99.90
2913;DHT22;1466;48.778;9.166;2023-11-19T03:08:00;11.90;99.90
2913;DHT22;1466;48.778;9.166;2023-11-19T03:10:26;11.90;99.90
2913;DHT22;1466;48.778;9.166;2023-11-19T03:12:52;11.90;99.90
2913;DHT22;1466;48.778;9.166;2023-11-19T03:15:17;11.90;99.90
2913;DHT22;1466;48.778;9.166;2023-11-19T03:17:43;11.90;99.90
2913;DHT22;1466;48.778;9.166;2023-11-19T03:20:11;11.90;99.90
2913;DHT22;1466;48.778;9.166;2023-11-19T03:22:42;11.90;99.90
2913;DHT22;1466;48.778;9.166;2023-11-19T03:25:10;11.90;99.90
2913;DHT22;1466;48.778;9.166;2023-11-19T03:27:39;11.90;99.90
2913;DHT22;1466;48.778;9.166;2023-11-19T03:30:05;11.90;99.90
2913;DHT22;1466;48.778;9.166;2023-11-19T03:32:32;12.00;99.90
2913;DHT22;1466;48.778;9.166;2023-11-19T03:34:58;12.00;99.90
2913;DHT22;1466;48.778;9.166;2023-11-19T03:37:27;12.00;99.90
2913;DHT22;1466;48.778;9.166;2023-11-19T03:39:57;12.00;99.90
2913;DHT22;1466;48.778;9.166;2023-11-19T03:42:28;11.90;99.90
2913;DHT22;1466;48.778;9.166;2023-11-19T03:44:55;11.90;99.90
2913;DHT22;1466;48.778;9.166;2023-11-19T03:47:20;12.00;99.90
2913;DHT22;1466;48.778;9.166;2023-11-19T03:49:49;12.00;99.90
2913;DHT22;1466;48.778;9.166;2023-11-19T03:52:16;12.00;99.90
2913;DHT22;1466;48.778;9.166;2023-11-19T03:54:41;12.00;99.90
2913;DHT22;1466;48.778;9.166;2023-11-19T03:57:07;12.00;99.90
2913;DHT22;1466;48.778;9.166;2023-11-19T03:59:32;12.00;99.90
2913;DHT22;1466;48.778;9.166;2023-11-19T04:01:59;12.00;99.90
2913;DHT22;1466;48.778;9.166;2023-11-19T04:04:26;12.00;99.90
2913;DHT22;1466;48.778;9.166;2023-11-19T04:06:53;12.10;99.90
2913;DHT22;1466;48.778;9.166;2023-11-19T04:09:18;12.20;99.90
2913;DHT22;1466;48.778;9.166;2023-11-19T04:11:44;12.20;99.90
2913;DHT22;1466;48.778;9.166;2023-11-19T04:14:12;12.20;99.90
2913;DHT22;1466;48.778;9.166;2023-11-19T04:16:38;12.20;99.90
2913;DHT22;1466;48.778;9.166;2023-11-19T04:19:04;12.20;99.90
2913;DHT22;1466;48.778;9.166;2023-11-19T04:21:30;12.20;99.90
2913;DHT22;1466;48.778;9.166;2023-11-19T04:23:56;12.20;99.90
2913;DHT22;1466;48.778;9.166;2023-11-19T04:26:21;12.20;99.90
2913;DHT22;1466;48.778;9.166;2023-11-19T04:28:47;12.30;99.90
2913;DHT22;1466;48.778;9.166;2023-11-19T04:31:17;12.30;99.90
2913;DHT22;1466;48.778;9.166;2023-11-19T04:33:43;12.30;99.90
2913;DHT22;1466;48.778;9.166;2023-11-19T04:36:09;12.30;99.90
2913;DHT22;1466;48.778;9.166;2023-11-19T04:38:35;12.30;99.90
2913;DHT22;1466;48.778;9.166;2023-11-19T04:41:01;12.40;99.90
2913;DHT22;1466;48.778;9.166;2023-11-19T04:43:27;12.40;99.90
2913;DHT22;1466;48.778;9.166;2023-11-19T04:45:52;12.40;99.90
2913;DHT22;1466;48.778;9.166;2023-11-19T04:48:18;12.40;99.90
2913;DHT22;1466;48.778;9.166;2023-11-19T04:50:43;12.40;99.90
2913;DHT22;1466;48.778;9.166;2023-11-19T04:53:09;12.40;99.90
2913;DHT22;1466;48.778;9.166;2023-11-19T04:55:35;12.40;99.90
2913;DHT22;1466;48.778;9.166;2023-11-19T04:58:01;12.40;99.90
2913;DHT22;1466;48.778;9.166;2023-11-19T05:00:26;12.50;99.90
2913;DHT22;1466;48.778;9.166;2023-11-19T05:02:52;12.50;99.90
2913;DHT22;1466;48.778;9.166;2023-11-19T05:05:17;12.50;99.90
2913;DHT22;1466;48.778;9.166;2023-11-19T05:07:43;12.50;99.90
2913;DHT22;1466;48.778;9.166;2023-11-19T05:10:09;12.60;99.90
2913;DHT22;1466;48.778;9.166;2023-11-19T05:12:35;12.50;99.90
2913;DHT22;1466;48.778;9.166;2023-11-19T05:15:00;12.60;99.90
2913;DHT22;1466;48.778;9.166;2023-11-19T05:17:26;12.60;99.90
2913;DHT22;1466;48.778;9.166;2023-11-19T05:19:52;12.70;99.90
2913;DHT22;1466;48.778;9.166;2023-11-19T05:22:17;12.70;99.90
2913;DHT22;1466;48.778;9.166;2023-11-19T05:24:43;12.70;99.90
2913;DHT22;1466;48.778;9.166;2023-11-19T05:27:09;12.70;99.90
2913;DHT22;1466;48.778;9.166;2023-11-19T05:29:37;12.70;99.90
2913;DHT22;1466;48.778;9.166;2023-11-19T05:32:05;12.70;99.90
2913;DHT22;1466;48.778;9.166;2023-11-19T05:34:30;12.70;99.90
2913;DHT22;1466;48.778;9.166;2023-11-19T05:36:56;12.70;99.90
2913;DHT22;1466;48.778;9.166;2023-11-19T05:39:22;12.70;99.90
2913;DHT22;1466;48.778;9.166;2023-11-19T05:41:49;12.70;99.90
2913;DHT22;1466;48.778;9.166;2023-11-19T05:44:14;12.80;99.90
2913;DHT22;1466;48.778;9.166;2023-11-19T05:46:40;12.80;99.90
2913;DHT22;1466;48.778;9.166;2023-11-19T05:49:08;12.90;99.90
2913;DHT22;1466;48.778;9.166;2023-11-19T05:51:40;12.90;99.90
2913;DHT22;1466;48.778;9.166;2023-11-19T05:54:09;12.90;99.90
2913;DHT22;1466;48.778;9.166;2023-11-19T05:56:36;12.90;99.90
2913;DHT22;1466;48.778;9.166;2023-11-19T05:59:02;12.90;99.90
2913;DHT22;1466;48.778;9.166;2023-11-19T06:01:33;12.90;99.90
2913;DHT22;1466;48.778;9.166;2023-11-19T06:03:59;13.00;99.90
2913;DHT22;1466;48.778;9.166;2023-11-19T06:06:26;12.90;99.90
2913;DHT22;1466;48.778;9.166;2023-11-19T06:08:52;12.90;99.90
2913;DHT22;1466;48.778;9.166;2023-11-19T06:11:17;12.90;99.90
2913;DHT22;1466;48.778;9.166;2023-11-19T06:13:45;12.90;99.90
2913;DHT22;1466;48.778;9.166;2023-11-19T06:16:11;12.90;99.90
2913;DHT22;1466;48.778;9.166;2023-11-19T06:18:37;12.90;99.90
2913;DHT22;1466;48.778;9.166;2023-11-19T06:21:03;12.90;99.90
2913;DHT22;1466;48.778;9.166;2023-11-19T06:23:29;12.90;99.90
2913;DHT22;1466;48.778;9.166;2023-11-19T06:25:54;12.90;99.90
2913;DHT22;1466;48.778;9.166;2023-11-19T06:28:20;12.90;99.90
2913;DHT22;1466;48.778;9.166;2023-11-19T06:30:45;12.90;99.90
2913;DHT22;1466;48.778;9.166;2023-11-19T06:33:14;12.90;99.90
2913;DHT22;1466;48.778;9.166;2023-11-19T06:35:40;12.90;99.90
2913;DHT22;1466;48.778;9.166;2023-11-19T06:38:05;12.90;99.90
2913;DHT22;1466;48.778;9.166;2023-11-19T06:40:35;12.90;99.90
2913;DHT22;1466;48.778;9.166;2023-11-19T06:43:01;13.00;99.90
2913;DHT22;1466;48.778;9.166;2023-11-19T06:45:29;13.00;99.90
2913;DHT22;1466;48.778;9.166;2023-11-19T06:47:54;13.00;99.90
2913;DHT22;1466;48.778;9.166;2023-11-19T06:50:20;13.00;99.90
2913;DHT22;1466;48.778;9.166;2023-11-19T06:52:46;13.00;99.90
2913;DHT22;1466;48.778;9.166;2023-11-19T06:55:11;13.10;99.90
2913;DHT22;1466;48.778;9.166;2023-11-19T06:57:37;13.10;99.90
2913;DHT22;1466;48.778;9.166;2023-11-19T07:00:04;13.10;99.90
2913;DHT22;1466;48.778;9.166;2023-11-19T07:02:31;13.10;99.90
2913;DHT22;1466;48.778;9.166;2023-11-19T07:04:57;13.10;99.90
2913;DHT22;1466;48.778;9.166;2023-11-19T07:07:22;13.10;99.90
2913;DHT22;1466;48.778;9.166;2023-11-19T07:09:48;13.10;99.90
2913;DHT22;1466;48.778;9.166;2023-11-19T07:12:14;13.10;99.90
2913;DHT22;1466;48.778;9.166;2023-11-19T07:14:40;13.10;99.90
2913;DHT22;1466;48.778;9.166;2023-11-19T07:17:07;13.10;99.90
2913;DHT22;1466;48.778;9.166;2023-11-19T07:19:34;13.10;99.90
2913;DHT22;1466;48.778;9.166;2023-11-19T07:22:01;13.10;99.90
2913;DHT22;1466;48.778;9.166;2023-11-19T07:24:27;13.10;99.90
2913;DHT22;1466;48.778;9.166;2023-11-19T07:26:54;13.10;99.90
2913;DHT22;1466;48.778;9.166;2023-11-19T07:29:19;13.10;99.90
2913;DHT22;1466;48.778;9.166;2023-11-19T07:31:48;13.10;99.90
2913;DHT22;1466;48.778;9.166;2023-11-19T07:34:13;13.10;99.90
2913;DHT22;1466;48.778;9.166;2023-11-19T07:36:39;13.10;99.90
2913;DHT22;1466;48.778;9.166;2023-11-19T07:39:05;13.10;99.90
2913;DHT22;1466;48.778;9.166;2023-11-19T07:41:31;13.10;99.90
2913;DHT22;1466;48.778;9.166;2023-11-19T07:43:57;13.10;99.90
2913;DHT22;1466;48.778;9.166;2023-11-19T07:46:22;13.10;99.90
2913;DHT22;1466;48.778;9.166;2023-11-19T07:48:48;13.10;99.90
2913;DHT22;1466;48.778;9.166;2023-11-19T07:51:14;13.20;99.90
2913;DHT22;1466;48.778;9.166;2023-11-19T07:53:40;13.20;99.90
2913;DHT22;1466;48.778;9.166;2023-11-19T07:56:07;13.20;99.90
2913;DHT22;1466;48.778;9.166;2023-11-19T07:58:33;13.30;99.90
2913;DHT22;1466;48.778;9.166;2023-11-19T08:00:59;13.30;99.90
2913;DHT22;1466;48.778;9.166;2023-11-19T08:03:24;13.30;99.90
2913;DHT22;1466;48.778;9.166;2023-11-19T08:05:50;13.30;99.90
2913;DHT22;1466;48.778;9.166;2023-11-19T08:08:16;13.30;99.90
2913;DHT22;1466;48.778;9.166;2023-11-19T08:10:42;13.40;99.90
2913;DHT22;1466;48.778;9.166;2023-11-19T08:13:08;13.40;99.90
2913;DHT22;1466;48.778;9.166;2023-11-19T08:15:34;13.40;99.90
2913;DHT22;1466;48.778;9.166;2023-11-19T08:18:00;13.50;99.90
2913;DHT22;1466;48.778;9.166;2023-11-19T08:20:25;13.50;99.90
2913;DHT22;1466;48.778;9.166;2023-11-19T08:22:51;13.60;99.90
2913;DHT22;1466;48.778;9.166;2023-11-19T08:25:17;13.60;99.90
2913;DHT22;1466;48.778;9.166;2023-11-19T08:27:43;13.60;99.90
2913;DHT22;1466;48.778;9.166;2023-11-19T08:30:09;13.70;99.90
2913;DHT22;1466;48.778;9.166;2023-11-19T08:32:38;13.70;99.90
2913;DHT22;1466;48.778;9.166;2023-11-19T08:35:03;13.70;99.90
2913;DHT22;1466;48.778;9.166;2023-11-19T08:37:29;13.80;99.90
2913;DHT22;1466;48.778;9.166;2023-11-19T08:39:54;13.90;99.90
2913;DHT22;1466;48.778;9.166;2023-11-19T08:42:20;14.00;99.90
2913;DHT22;1466;48.778;9.166;2023-11-19T08:44:50;14.10;99.90
2913;DHT22;1466;48.778;9.166;2023-11-19T08:47:16;14.20;99.90
2913;DHT22;1466;48.778;9.166;2023-11-19T08:49:43;14.30;99.90
2913;DHT22;1466;48.778;9.166;2023-11-19T08:52:09;14.30;99.90
2913;DHT22;1466;48.778;9.166;2023-11-19T08:54:42;14.30;99.90
2913;DHT22;1466;48.778;9.166;2023-11-19T08:57:08;14.20;99.90
2913;DHT22;1466;48.778;9.166;2023-11-19T08:59:34;14.30;99.90
2913;DHT22;1466;48.778;9.166;2023-11-19T09:02:00;14.30;99.90
2913;DHT22;1466;48.778;9.166;2023-11-19T09:04:25;14.30;99.90
2913;DHT22;1466;48.778;9.166;2023-11-19T09:06:51;14.30;99.90
2913;DHT22;1466;48.778;9.166;2023-11-19T09:09:16;14.40;99.90
2913;DHT22;1466;48.778;9.166;2023-11-19T09:11:42;14.50;99.90
2913;DHT22;1466;48.778;9.166;2023-11-19T09:14:08;14.50;99.90
2913;DHT22;1466;48.778;9.166;2023-11-19T09:16:33;14.60;99.90
2913;DHT22;1466;48.778;9.166;2023-11-19T09:19:00;14.70;99.90
2913;DHT22;1466;48.778;9.166;2023-11-19T09:21:26;14.80;99.90
2913;DHT22;1466;48.778;9.166;2023-11-19T09:23:51;14.70;99.90
2913;DHT22;1466;48.778;9.166;2023-11-19T09:26:19;14.80;99.90
2913;DHT22;1466;48.778;9.166;2023-11-19T09:28:44;14.80;99.90
2913;DHT22;1466;48.778;9.166;2023-11-19T09:31:17;14.80;99.90
2913;DHT22;1466;48.778;9.166;2023-11-19T09:33:42;14.80;99.90
2913;DHT22;1466;48.778;9.166;2023-11-19T09:36:08;14.80;99.90
2913;DHT22;1466;48.778;9.166;2023-11-19T09:38:34;15.00;99.90
2913;DHT22;1466;48.778;9.166;2023-11-19T09:41:07;15.00;99.90
2913;DHT22;1466;48.778;9.166;2023-11-19T09:43:38;15.10;99.90
2913;DHT22;1466;48.778;9.166;2023-11-19T09:46:05;15.20;99.90
2913;DHT22;1466;48.778;9.166;2023-11-19T09:48:33;15.30;99.90
2913;DHT22;1466;48.778;9.166;2023-11-19T09:51:00;15.30;99.90
2913;DHT22;1466;48.778;9.166;2023-11-19T09:53:26;15.40;99.90
2913;DHT22;1466;48.778;9.166;2023-11-19T09:55:53;15.50;99.90
2913;DHT22;1466;48.778;9.166;2023-11-19T09:58:19;15.50;99.90
2913;DHT22;1466;48.778;9.166;2023-11-19T10:00:44;15.60;99.90
2913;DHT22;1466;48.778;9.166;2023-11-19T10:03:11;15.60;99.90
2913;DHT22;1466;48.778;9.166;2023-11-19T10:05:38;15.70;99.90
2913;DHT22;1466;48.778;9.166;2023-11-19T10:08:05;15.80;99.90
2913;DHT22;1466;48.778;9.166;2023-11-19T10:10:31;16.00;99.90
2913;DHT22;1466;48.778;9.166;2023-11-19T10:12:56;16.10;99.90
2913;DHT22;1466;48.778;9.166;2023-11-19T10:15:24;16.10;99.90
2913;DHT22;1466;48.778;9.166;2023-11-19T10:18:01;16.10;99.90
2913;DHT22;1466;48.778;9.166;2023-11-19T10:20:26;16.10;99.90
2913;DHT22;1466;48.778;9.166;2023-11-19T10:22:53;16.10;99.90
2913;DHT22;1466;48.778;9.166;2023-11-19T10:25:27;16.20;99.90
2913;DHT22;1466;48.778;9.166;2023-11-19T10:27:54;16.20;99.90
2913;DHT22;1466;48.778;9.166;2023-11-19T10:30:24;16.30;99.90
2913;DHT22;1466;48.778;9.166;2023-11-19T10:33:21;16.30;99.90
2913;DHT22;1466;48.778;9.166;2023-11-19T10:35:54;16.30;99.90
2913;DHT22;1466;48.778;9.166;2023-11-19T10:38:22;16.30;99.90
2913;DHT22;1466;48.778;9.166;2023-11-19T10:40:49;16.30;99.90
2913;DHT22;1466;48.778;9.166;2023-11-19T10:43:14;16.30;99.90
2913;DHT22;1466;48.778;9.166;2023-11-19T10:45:40;16.30;99.90
2913;DHT22;1466;48.778;9.166;2023-11-19T10:48:07;16.30;99.90
2913;DHT22;1466;48.778;9.166;2023-11-19T10:50:36;16.40;99.90
2913;DHT22;1466;48.778;9.166;2023-11-19T10:53:04;16.40;99.90
2913;DHT22;1466;48.778;9.166;2023-11-19T10:55:34;16.40;99.90
2913;DHT22;1466;48.778;9.166;2023-11-19T10:58:08;16.40;99.90
2913;DHT22;1466;48.778;9.166;2023-11-19T11:00:46;16.50;99.90
2913;DHT22;1466;48.778;9.166;2023-11-19T11:03:20;16.50;99.90
2913;DHT22;1466;48.778;9.166;2023-11-19T11:05:48;16.60;99.90
2913;DHT22;1466;48.778;9.166;2023-11-19T11:08:14;16.50;99.90
2913;DHT22;1466;48.778;9.166;2023-11-19T11:10:43;16.50;99.90
2913;DHT22;1466;48.778;9.166;2023-11-19T11:13:10;16.50;99.90
2913;DHT22;1466;48.778;9.166;2023-11-19T11:15:37;16.50;99.90
2913;DHT22;1466;48.778;9.166;2023-11-19T11:18:04;16.60;99.90
2913;DHT22;1466;48.778;9.166;2023-11-19T11:20:33;16.60;99.90
2913;DHT22;1466;48.778;9.166;2023-11-19T11:34:32;16.40;99.90
2913;DHT22;1466;48.778;9.166;2023-11-19T11:39:34;16.40;99.90
2913;DHT22;1466;48.778;9.166;2023-11-19T11:50:18;16.30;99.90
2913;DHT22;1466;48.778;9.166;2023-11-19T11:57:57;16.40;99.90
2913;DHT22;1466;48.778;9.166;2023-11-19T12:00:30;16.50;99.90
2913;DHT22;1466;48.778;9.166;2023-11-19T12:02:57;16.60;99.90
2913;DHT22;1466;48.778;9.166;2023-11-19T12:05:24;16.70;99.90
2913;DHT22;1466;48.778;9.166;2023-11-19T12:10:33;16.80;99.90
2913;DHT22;1466;48.778;9.166;2023-11-19T12:13:05;16.80;99.90
2913;DHT22;1466;48.778;9.166;2023-11-19T12:15:32;17.00;99.90
2913;DHT22;1466;48.778;9.166;2023-11-19T12:17:58;17.00;99.90
2913;DHT22;1466;48.778;9.166;2023-11-19T12:20:26;17.20;99.90
2913;DHT22;1466;48.778;9.166;2023-11-19T12:22:53;17.10;99.90
2913;DHT22;1466;48.778;9.166;2023-11-19T12:25:19;17.00;99.90
2913;DHT22;1466;48.778;9.166;2023-11-19T12:27:47;17.00;99.90
2913;DHT22;1466;48.778;9.166;2023-11-19T12:30:23;17.10;99.90
2913;DHT22;1466;48.778;9.166;2023-11-19T12:32:50;17.10;99.90
2913;DHT22;1466;48.778;9.166;2023-11-19T12:35:16;17.20;99.90
2913;DHT22;1466;48.778;9.166;2023-11-19T12:37:45;17.10;99.90
2913;DHT22;1466;48.778;9.166;2023-11-19T12:40:20;17.10;99.90
2913;DHT22;1466;48.778;9.166;2023-11-19T12:42:50;17.00;99.90
2913;DHT22;1466;48.778;9.166;2023-11-19T12:45:15;16.80;99.50
2913;DHT22;1466;48.778;9.166;2023-11-19T12:47:45;16.80;99.20
2913;DHT22;1466;48.778;9.166;2023-11-19T12:50:13;16.70;99.00
2913;DHT22;1466;48.778;9.166;2023-11-19T12:52:41;16.70;98.50
2913;DHT22;1466;48.778;9.166;2023-11-19T12:55:28;16.70;98.90
2913;DHT22;1466;48.778;9.166;2023-11-19T12:57:54;16.80;98.80
2913;DHT22;1466;48.778;9.166;2023-11-19T13:00:25;16.80;98.80
2913;DHT22;1466;48.778;9.166;2023-11-19T13:02:55;16.70;98.90
2913;DHT22;1466;48.778;9.166;2023-11-19T13:05:26;16.80;99.10
2913;DHT22;1466;48.778;9.166;2023-11-19T13:08:06;16.80;99.40
2913;DHT22;1466;48.778;9.166;2023-11-19T13:10:51;16.90;99.20
2913;DHT22;1466;48.778;9.166;2023-11-19T13:13:17;16.90;98.90
2913;DHT22;1466;48.778;9.166;2023-11-19T13:15:43;16.90;98.40
2913;DHT22;1466;48.778;9.166;2023-11-19T13:18:10;16.90;97.90
2913;DHT22;1466;48.778;9.166;2023-11-19T13:20:36;16.90;97.90
2913;DHT22;1466;48.778;9.166;2023-11-19T13:23:03;16.90;97.30
2913;DHT22;1466;48.778;9.166;2023-11-19T13:25:30;16.80;97.10
2913;DHT22;1466;48.778;9.166;2023-11-19T13:27:55;16.80;97.20
2913;DHT22;1466;48.778;9.166;2023-11-19T13:30:22;16.90;97.00
2913;DHT22;1466;48.778;9.166;2023-11-19T13:32:49;16.80;97.00
2913;DHT22;1466;48.778;9.166;2023-11-19T13:35:15;16.70;96.80
2913;DHT22;1466;48.778;9.166;2023-11-19T13:37:43;16.80;96.90
2913;DHT22;1466;48.778;9.166;2023-11-19T13:40:09;16.70;96.90
2913;DHT22;1466;48.778;9.166;2023-11-19T13:42:36;16.70;96.80
2913;DHT22;1466;48.778;9.166;2023-11-19T13:45:05;16.70;96.80
2913;DHT22;1466;48.778;9.166;2023-11-19T13:47:31;16.70;97.10
2913;DHT22;1466;48.778;9.166;2023-11-19T13:49:56;16.70;97.10
2913;DHT22;1466;48.778;9.166;2023-11-19T13:52:22;16.80;97.10
2913;DHT22;1466;48.778;9.166;2023-11-19T13:54:47;16.80;97.00
2913;DHT22;1466;48.778;9.166;2023-11-19T13:57:13;16.80;97.10
2913;DHT22;1466;48.778;9.166;2023-11-19T13:59:41;16.70;97.10
2913;DHT22;1466;48.778;9.166;2023-11-19T14:02:07;16.70;97.30
2913;DHT22;1466;48.778;9.166;2023-11-19T14:04:33;16.70;96.40
2913;DHT22;1466;48.778;9.166;2023-11-19T14:06:59;16.60;96.30
2913;DHT22;1466;48.778;9.166;2023-11-19T14:09:24;16.50;96.30
2913;DHT22;1466;48.778;9.166;2023-11-19T14:11:50;16.50;96.20
2913;DHT22;1466;48.778;9.166;2023-11-19T14:14:16;16.50;95.40
2913;DHT22;1466;48.778;9.166;2023-11-19T14:16:42;16.40;95.10
2913;DHT22;1466;48.778;9.166;2023-11-19T14:19:07;16.30;95.10
2913;DHT22;1466;48.778;9.166;2023-11-19T14:21:33;16.30;95.20
2913;DHT22;1466;48.778;9.166;2023-11-19T14:23:59;16.30;95.40
2913;DHT22;1466;48.778;9.166;2023-11-19T14:26:24;16.30;95.60
2913;DHT22;1466;48.778;9.166;2023-11-19T14:28:50;16.30;95.70
2913;DHT22;1466;48.778;9.166;2023-11-19T14:31:15;16.30;95.90
2913;DHT22;1466;48.778;9.166;2023-11-19T14:33:41;16.30;96.00
2913;DHT22;1466;48.778;9.166;2023-11-19T14:36:07;16.30;96.10
2913;DHT22;1466;48.778;9.166;2023-11-19T14:38:32;16.30;96.00
2913;DHT22;1466;48.778;9.166;2023-11-19T14:40:58;16.30;96.20
2913;DHT22;1466;48.778;9.166;2023-11-19T14:43:25;16.20;96.30
2913;DHT22;1466;48.778;9.166;2023-11-19T14:45:50;16.20;96.50
2913;DHT22;1466;48.778;9.166;2023-11-19T14:48:19;16.20;96.60
2913;DHT22;1466;48.778;9.166;2023-11-19T14:50:44;16.10;96.80
2913;DHT22;1466;48.778;9.166;2023-11-19T14:53:10;16.10;97.00
2913;DHT22;1466;48.778;9.166;2023-11-19T14:55:36;16.00;97.20
2913;DHT22;1466;48.778;9.166;2023-11-19T14:58:01;16.00;97.40
2913;DHT22;1466;48.778;9.166;2023-11-19T15:00:27;16.00;97.60
2913;DHT22;1466;48.778;9.166;2023-11-19T15:02:53;15.90;97.80
2913;DHT22;1466;48.778;9.166;2023-11-19T15:05:18;15.90;97.80
2913;DHT22;1466;48.778;9.166;2023-11-19T15:07:45;15.90;98.00
2913;DHT22;1466;48.778;9.166;2023-11-19T15:10:10;15.80;98.20
2913;DHT22;1466;48.778;9.166;2023-11-19T15:12:38;15.80;97.80
2913;DHT22;1466;48.778;9.166;2023-11-19T15:15:07;15.70;97.60
2913;DHT22;1466;48.778;9.166;2023-11-19T15:17:33;15.60;97.70
2913;DHT22;1466;48.778;9.166;2023-11-19T15:19:58;15.60;97.50
2913;DHT22;1466;48.778;9.166;2023-11-19T15:22:24;15.60;97.50
2913;DHT22;1466;48.778;9.166;2023-11-19T15:24:49;15.60;97.00
2913;DHT22;1466;48.778;9.166;2023-11-19T15:27:15;15.50;97.00
2913;DHT22;1466;48.778;9.166;2023-11-19T15:29:41;15.50;97.20
2913;DHT22;1466;48.778;9.166;2023-11-19T15:32:06;15.50;97.10
2913;DHT22;1466;48.778;9.166;2023-11-19T15:34:33;15.40;97.10
2913;DHT22;1466;48.778;9.166;2023-11-19T15:36:59;15.40;97.20
2913;DHT22;1466;48.778;9.166;2023-11-19T15:39:26;15.40;97.30
2913;DHT22;1466;48.778;9.166;2023-11-19T15:41:53;15.40;97.40
2913;DHT22;1466;48.778;9.166;2023-11-19T15:44:18;15.30;97.50
2913;DHT22;1466;48.778;9.166;2023-11-19T15:46:44;15.30;97.50
2913;DHT22;1466;48.778;9.166;2023-11-19T15:49:09;15.30;97.70
2913;DHT22;1466;48.778;9.166;2023-11-19T15:51:35;15.30;97.90
2913;DHT22;1466;48.778;9.166;2023-11-19T15:54:01;15.20;98.00
2913;DHT22;1466;48.778;9.166;2023-11-19T15:56:26;15.20;98.20
2913;DHT22;1466;48.778;9.166;2023-11-19T15:58:52;15.10;98.40
2913;DHT22;1466;48.778;9.166;2023-11-19T16:01:18;15.10;98.60
2913;DHT22;1466;48.778;9.166;2023-11-19T16:03:43;15.10;98.70
2913;DHT22;1466;48.778;9.166;2023-11-19T16:06:09;15.00;98.80
2913;DHT22;1466;48.778;9.166;2023-11-19T16:08:36;15.00;98.70
2913;DHT22;1466;48.778;9.166;2023-11-19T16:11:03;15.00;98.80
2913;DHT22;1466;48.778;9.166;2023-11-19T16:13:29;15.00;98.80
2913;DHT22;1466;48.778;9.166;2023-11-19T16:15:55;15.00;98.80
2913;DHT22;1466;48.778;9.166;2023-11-19T16:18:21;15.00;98.90
2913;DHT22;1466;48.778;9.166;2023-11-19T16:20:46;15.00;99.00
2913;DHT22;1466;48.778;9.166;2023-11-19T16:23:12;15.00;99.00
2913;DHT22;1466;48.778;9.166;2023-11-19T16:25:38;15.00;99.20
2913;DHT22;1466;48.778;9.166;2023-11-19T16:28:04;14.90;99.20
2913;DHT22;1466;48.778;9.166;2023-11-19T16:30:33;14.90;99.40